createdAt,value
2023-01-25T00:00:08.445Z,6.36
2023-01-25T00:01:08.440Z,6.28
2023-01-25T00:02:08.489Z,6.30
2023-01-25T00:03:08.514Z,6.33
2023-01-25T00:04:08.431Z,6.33
2023-01-25T00:05:08.776Z,6.17
2023-01-25T00:06:08.421Z,6.27
2023-01-25T00:07:08.408Z,6.30
2023-01-25T00:08:08.410Z,6.18
2023-01-25T00:09:08.403Z,6.17
2023-01-25T00:10:08.399Z,6.14
2023-01-25T00:11:08.388Z,6.18
2023-01-25T00:12:08.395Z,6.14
2023-01-25T00:13:08.410Z,6.25
2023-01-25T00:14:08.379Z,6.12
2023-01-25T00:15:08.787Z,6.12
2023-01-25T00:16:08.447Z,6.08
2023-01-25T00:17:08.359Z,6.18
2023-01-25T00:18:08.364Z,6.15
2023-01-25T00:19:08.348Z,6.12
2023-01-25T00:20:08.356Z,6.31
2023-01-25T00:21:08.348Z,6.30
2023-01-25T00:22:08.342Z,6.33
2023-01-25T00:23:08.343Z,6.31
2023-01-25T00:24:08.417Z,6.40
2023-01-25T00:25:08.664Z,6.37
2023-01-25T00:26:08.317Z,6.38
2023-01-25T00:27:08.319Z,6.46
2023-01-25T00:28:08.311Z,6.37
2023-01-25T00:29:08.328Z,6.30
2023-01-25T00:30:08.296Z,6.34
2023-01-25T00:31:08.302Z,6.41
2023-01-25T00:32:08.398Z,6.34
2023-01-25T00:33:08.283Z,6.36
2023-01-25T00:34:08.282Z,6.41
2023-01-25T00:35:08.709Z,6.48
2023-01-25T00:36:08.277Z,6.41
2023-01-25T00:37:08.260Z,6.48
2023-01-25T00:38:08.269Z,6.43
2023-01-25T00:39:08.278Z,6.44
2023-01-25T00:40:08.253Z,6.40
2023-01-25T00:41:08.248Z,6.34
2023-01-25T00:42:08.251Z,6.41
2023-01-25T00:43:08.240Z,6.36
2023-01-25T00:44:08.265Z,6.37
2023-01-25T00:45:08.635Z,6.48
2023-01-25T00:46:08.369Z,6.43
2023-01-25T00:47:08.213Z,6.44
2023-01-25T00:48:08.209Z,6.49
2023-01-25T00:49:08.205Z,6.58
2023-01-25T00:50:08.209Z,6.44
2023-01-25T00:51:08.192Z,6.54
2023-01-25T00:52:08.195Z,6.52
2023-01-25T00:53:08.189Z,6.52
2023-01-25T00:54:08.178Z,6.52
2023-01-25T00:55:08.568Z,6.55
2023-01-25T00:56:08.174Z,6.49
2023-01-25T00:57:08.160Z,6.49
2023-01-25T00:58:08.160Z,6.52
2023-01-25T00:59:08.158Z,6.44
2023-01-25T01:00:08.152Z,6.49
2023-01-25T01:01:08.259Z,6.61
2023-01-25T01:02:08.143Z,6.55
2023-01-25T01:03:08.136Z,6.55
2023-01-25T01:04:08.138Z,6.55
2023-01-25T01:05:08.658Z,6.52
2023-01-25T01:06:08.122Z,6.54
2023-01-25T01:07:08.116Z,6.31
2023-01-25T01:08:08.113Z,6.40
2023-01-25T01:09:08.110Z,6.38
2023-01-25T01:10:08.104Z,6.37
2023-01-25T01:11:08.101Z,6.43
2023-01-25T01:12:08.098Z,6.46
2023-01-25T01:13:08.084Z,6.48
2023-01-25T01:14:08.099Z,6.36
2023-01-25T01:15:08.398Z,6.51
2023-01-25T01:16:08.282Z,6.46
2023-01-25T01:17:08.109Z,6.58
2023-01-25T01:18:08.069Z,6.52
2023-01-25T01:19:08.061Z,6.59
2023-01-25T01:20:08.067Z,6.54
2023-01-25T01:21:08.051Z,6.62
2023-01-25T01:22:08.046Z,6.66
2023-01-25T01:23:08.039Z,6.58
2023-01-25T01:24:08.151Z,6.62
2023-01-25T01:25:08.412Z,6.56
2023-01-25T01:26:08.027Z,6.58
2023-01-25T01:27:08.018Z,6.56
2023-01-25T01:28:08.016Z,6.62
2023-01-25T01:29:08.013Z,6.59
2023-01-25T01:30:08.007Z,6.66
2023-01-25T01:31:07.999Z,6.54
2023-01-25T01:32:08.124Z,6.58
2023-01-25T01:33:08.019Z,6.58
2023-01-25T01:34:07.989Z,6.55
2023-01-25T01:35:08.410Z,6.66
2023-01-25T01:36:08.188Z,6.58
2023-01-25T01:37:07.971Z,6.59
2023-01-25T01:38:07.991Z,6.69
2023-01-25T01:39:07.964Z,6.67
2023-01-25T01:40:07.970Z,6.67
2023-01-25T01:41:07.954Z,6.69
2023-01-25T01:42:07.947Z,6.62
2023-01-25T01:43:07.941Z,6.67
2023-01-25T01:44:07.946Z,6.64
2023-01-25T01:45:08.430Z,6.70
2023-01-25T01:46:07.992Z,6.69
2023-01-25T01:47:07.925Z,6.76
2023-01-25T01:48:07.916Z,6.61
2023-01-25T01:49:07.940Z,6.76
2023-01-25T01:50:07.912Z,6.71
2023-01-25T01:51:07.905Z,6.61
2023-01-25T01:52:07.903Z,6.70
2023-01-25T01:53:07.892Z,6.67
2023-01-25T01:54:07.891Z,6.58
2023-01-25T01:55:08.365Z,6.61
2023-01-25T01:56:07.889Z,6.59
2023-01-25T01:57:07.876Z,6.70
2023-01-25T01:58:07.878Z,6.62
2023-01-25T01:59:07.883Z,6.62
2023-01-25T02:00:07.868Z,6.67
2023-01-25T02:01:07.885Z,6.69
2023-01-25T02:02:07.912Z,6.48
2023-01-25T02:03:07.844Z,6.41
2023-01-25T02:04:07.851Z,6.38
2023-01-25T02:05:08.302Z,6.38
2023-01-25T02:06:07.834Z,6.38
2023-01-25T02:07:07.839Z,6.40
2023-01-25T02:08:07.826Z,6.37
2023-01-25T02:09:07.825Z,6.44
2023-01-25T02:10:07.817Z,6.40
2023-01-25T02:11:07.813Z,6.44
2023-01-25T02:12:07.806Z,6.40
2023-01-25T02:13:07.796Z,6.31
2023-01-25T02:14:07.794Z,6.36
2023-01-25T02:15:08.148Z,6.37
2023-01-25T02:16:07.865Z,6.38
2023-01-25T02:17:07.779Z,6.34
2023-01-25T02:18:07.777Z,6.33
2023-01-25T02:19:07.767Z,6.41
2023-01-25T02:20:07.775Z,6.31
2023-01-25T02:21:07.788Z,6.33
2023-01-25T02:22:07.783Z,6.33
2023-01-25T02:23:07.762Z,6.33
2023-01-25T02:24:07.805Z,6.27
2023-01-25T02:25:08.129Z,6.27
2023-01-25T02:26:07.742Z,6.34
2023-01-25T02:27:07.731Z,6.38
2023-01-25T02:28:07.731Z,6.36
2023-01-25T02:29:07.730Z,6.36
2023-01-25T02:30:07.716Z,6.44
2023-01-25T02:31:07.833Z,6.40
2023-01-25T02:32:07.746Z,6.41
2023-01-25T02:33:07.701Z,6.55
2023-01-25T02:34:07.699Z,6.49
2023-01-25T02:35:08.141Z,6.46
2023-01-25T02:36:07.720Z,6.48
2023-01-25T02:37:07.711Z,6.48
2023-01-25T02:38:07.682Z,6.48
2023-01-25T02:39:07.672Z,6.52
2023-01-25T02:40:07.672Z,6.44
2023-01-25T02:41:07.672Z,6.52
2023-01-25T02:42:07.676Z,6.40
2023-01-25T02:43:07.651Z,6.19
2023-01-25T02:44:07.657Z,6.08
2023-01-25T02:45:07.961Z,6.15
2023-01-25T02:46:07.716Z,6.18
2023-01-25T02:47:07.646Z,6.18
2023-01-25T02:48:07.631Z,6.17
2023-01-25T02:49:07.646Z,6.33
2023-01-25T02:50:07.620Z,6.37
2023-01-25T02:51:07.621Z,6.30
2023-01-25T02:52:07.618Z,6.34
2023-01-25T02:53:07.633Z,6.36
2023-01-25T02:54:07.603Z,6.36
2023-01-25T02:55:07.987Z,6.38
2023-01-25T02:56:07.594Z,6.46
2023-01-25T02:57:07.591Z,6.40
2023-01-25T02:58:07.591Z,6.55
2023-01-25T02:59:07.585Z,6.49
2023-01-25T03:00:07.574Z,6.41
2023-01-25T03:01:07.634Z,6.51
2023-01-25T03:02:07.571Z,6.52
2023-01-25T03:03:07.856Z,6.37
2023-01-25T03:04:07.565Z,6.52
2023-01-25T03:05:07.933Z,6.44
2023-01-25T03:06:07.557Z,6.44
2023-01-25T03:07:07.540Z,6.49
2023-01-25T03:08:07.537Z,6.48
2023-01-25T03:09:07.883Z,6.56
2023-01-25T03:10:07.545Z,6.56
2023-01-25T03:11:07.530Z,6.51
2023-01-25T03:12:07.517Z,6.46
2023-01-25T03:13:07.515Z,6.44
2023-01-25T03:14:07.508Z,6.40
2023-01-25T03:15:07.845Z,6.41
2023-01-25T03:16:07.573Z,6.37
2023-01-25T03:17:07.515Z,6.36
2023-01-25T03:18:07.490Z,6.38
2023-01-25T03:19:07.494Z,6.40
2023-01-25T03:20:07.480Z,6.34
2023-01-25T03:21:07.473Z,6.40
2023-01-25T03:22:07.468Z,6.44
2023-01-25T03:23:07.463Z,6.43
2023-01-25T03:24:07.503Z,6.44
2023-01-25T03:25:07.827Z,6.46
2023-01-25T03:26:07.453Z,6.51
2023-01-25T03:27:07.449Z,6.40
2023-01-25T03:28:07.442Z,6.38
2023-01-25T03:29:07.438Z,6.33
2023-01-25T03:30:07.429Z,6.34
2023-01-25T03:31:07.447Z,6.40
2023-01-25T03:32:07.545Z,6.44
2023-01-25T03:33:07.413Z,6.40
2023-01-25T03:34:07.408Z,6.33
2023-01-25T03:35:07.721Z,6.18
2023-01-25T03:36:07.494Z,6.25
2023-01-25T03:37:07.398Z,6.04
2023-01-25T03:38:07.394Z,6.12
2023-01-25T03:39:07.383Z,6.18
2023-01-25T03:40:07.384Z,6.19
2023-01-25T03:41:07.397Z,6.31
2023-01-25T03:42:07.409Z,6.31
2023-01-25T03:43:07.365Z,6.40
2023-01-25T03:44:07.360Z,6.46
2023-01-25T03:45:07.364Z,6.38
2023-01-25T03:46:07.352Z,6.38
2023-01-25T03:47:07.425Z,6.25
2023-01-25T03:48:07.341Z,6.36
2023-01-25T03:49:07.338Z,6.33
2023-01-25T03:50:07.349Z,6.36
2023-01-25T03:51:07.344Z,6.40
2023-01-25T03:52:07.324Z,6.43
2023-01-25T03:53:07.316Z,6.40
2023-01-25T03:54:07.309Z,6.40
2023-01-25T03:55:07.655Z,6.55
2023-01-25T03:56:07.304Z,6.49
2023-01-25T03:57:07.323Z,6.54
2023-01-25T03:58:07.298Z,6.58
2023-01-25T03:59:07.302Z,6.59
2023-01-25T04:00:07.279Z,6.62
2023-01-25T04:01:07.533Z,6.52
2023-01-25T04:02:07.323Z,6.49
2023-01-25T04:03:07.276Z,6.51
2023-01-25T04:04:07.277Z,6.51
2023-01-25T04:05:07.563Z,6.52
2023-01-25T04:06:07.255Z,6.52
2023-01-25T04:07:07.250Z,6.52
2023-01-25T04:08:07.249Z,6.49
2023-01-25T04:09:07.241Z,6.54
2023-01-25T04:10:07.249Z,6.52
2023-01-25T04:11:07.239Z,6.46
2023-01-25T04:12:07.229Z,6.56
2023-01-25T04:13:07.240Z,6.64
2023-01-25T04:14:07.219Z,6.48
2023-01-25T04:15:07.657Z,6.55
2023-01-25T04:16:07.208Z,6.41
2023-01-25T04:17:07.206Z,6.46
2023-01-25T04:18:07.198Z,6.46
2023-01-25T04:19:07.214Z,6.46
2023-01-25T04:20:07.187Z,6.41
2023-01-25T04:21:07.187Z,6.55
2023-01-25T04:22:07.184Z,6.46
2023-01-25T04:23:07.185Z,6.52
2023-01-25T04:24:07.249Z,6.52
2023-01-25T04:25:07.731Z,6.58
2023-01-25T04:26:07.154Z,6.46
2023-01-25T04:27:07.159Z,6.59
2023-01-25T04:28:07.146Z,6.54
2023-01-25T04:29:07.176Z,6.55
2023-01-25T04:30:07.138Z,6.49
2023-01-25T04:31:07.152Z,6.43
2023-01-25T04:32:07.301Z,6.43
2023-01-25T04:33:07.137Z,6.44
2023-01-25T04:34:07.117Z,6.43
2023-01-25T04:35:07.534Z,6.31
2023-01-25T04:36:07.109Z,6.28
2023-01-25T04:37:07.110Z,6.40
2023-01-25T04:38:07.097Z,6.36
2023-01-25T04:39:07.104Z,6.37
2023-01-25T04:40:07.126Z,6.44
2023-01-25T04:41:07.093Z,6.46
2023-01-25T04:42:07.112Z,6.55
2023-01-25T04:43:07.098Z,6.56
2023-01-25T04:44:07.077Z,6.52
2023-01-25T04:45:07.633Z,6.48
2023-01-25T04:46:07.104Z,6.51
2023-01-25T04:47:07.068Z,6.59
2023-01-25T04:48:07.049Z,6.58
2023-01-25T04:49:07.047Z,6.56
2023-01-25T04:50:07.446Z,6.41
2023-01-25T04:51:07.049Z,6.44
2023-01-25T04:52:07.070Z,6.37
2023-01-25T04:53:07.039Z,6.41
2023-01-25T04:54:07.023Z,6.44
2023-01-25T04:55:07.457Z,6.40
2023-01-25T04:56:07.020Z,6.52
2023-01-25T04:57:07.011Z,6.49
2023-01-25T04:58:07.006Z,6.56
2023-01-25T04:59:06.997Z,6.56
2023-01-25T05:00:06.993Z,6.62
2023-01-25T05:01:07.062Z,6.66
2023-01-25T05:02:07.041Z,6.62
2023-01-25T05:03:06.987Z,6.66
2023-01-25T05:04:06.973Z,6.59
2023-01-25T05:05:07.610Z,6.58
2023-01-25T05:06:06.963Z,6.59
2023-01-25T05:07:06.963Z,6.70
2023-01-25T05:08:06.956Z,6.70
2023-01-25T05:09:06.951Z,6.70
2023-01-25T05:10:06.948Z,6.64
2023-01-25T05:11:06.941Z,6.66
2023-01-25T05:12:06.939Z,6.73
2023-01-25T05:13:06.939Z,6.70
2023-01-25T05:14:06.926Z,6.62
2023-01-25T05:15:07.333Z,6.73
2023-01-25T05:16:08.965Z,6.64
2023-01-25T05:17:06.955Z,6.67
2023-01-25T05:18:06.909Z,6.61
2023-01-25T05:19:06.908Z,6.69
2023-01-25T05:20:06.901Z,6.67
2023-01-25T05:21:06.914Z,6.66
2023-01-25T05:22:06.893Z,6.73
2023-01-25T05:23:06.888Z,6.73
2023-01-25T05:24:06.934Z,6.67
2023-01-25T05:25:07.383Z,6.69
2023-01-25T05:26:06.870Z,6.69
2023-01-25T05:27:06.864Z,6.64
2023-01-25T05:28:06.866Z,6.69
2023-01-25T05:29:06.871Z,6.66
2023-01-25T05:30:06.851Z,6.62
2023-01-25T05:31:06.907Z,6.64
2023-01-25T05:32:06.992Z,6.46
2023-01-25T05:33:06.860Z,6.33
2023-01-25T05:34:06.842Z,6.18
2023-01-25T05:35:07.404Z,6.11
2023-01-25T05:36:06.821Z,6.14
2023-01-25T05:37:06.823Z,6.25
2023-01-25T05:38:06.849Z,6.19
2023-01-25T05:39:06.817Z,6.31
2023-01-25T05:40:06.813Z,6.30
2023-01-25T05:41:06.800Z,6.34
2023-01-25T05:42:06.793Z,6.38
2023-01-25T05:43:06.789Z,6.43
2023-01-25T05:44:06.779Z,6.36
2023-01-25T05:45:07.386Z,6.48
2023-01-25T05:46:06.830Z,6.54
2023-01-25T05:47:06.877Z,6.62
2023-01-25T05:48:06.762Z,6.62
2023-01-25T05:49:06.779Z,6.64
2023-01-25T05:50:08.748Z,6.62
2023-01-25T05:51:06.748Z,6.69
2023-01-25T05:52:06.756Z,6.79
2023-01-25T05:53:06.766Z,6.66
2023-01-25T05:54:06.731Z,6.69
2023-01-25T05:55:07.232Z,6.74
2023-01-25T05:56:06.726Z,6.71
2023-01-25T05:57:06.725Z,6.66
2023-01-25T05:58:06.724Z,6.66
2023-01-25T05:59:06.713Z,6.71
2023-01-25T06:00:06.707Z,6.73
2023-01-25T06:01:06.707Z,6.70
2023-01-25T06:02:06.727Z,6.67
2023-01-25T06:03:06.942Z,6.71
2023-01-25T06:04:06.696Z,6.77
2023-01-25T06:05:07.193Z,6.69
2023-01-25T06:06:06.706Z,6.69
2023-01-25T06:07:06.700Z,6.55
2023-01-25T06:08:06.670Z,6.69
2023-01-25T06:09:06.683Z,6.73
2023-01-25T06:10:06.661Z,6.54
2023-01-25T06:11:06.663Z,6.58
2023-01-25T06:12:06.647Z,6.69
2023-01-25T06:13:06.647Z,6.73
2023-01-25T06:14:06.642Z,6.69
2023-01-25T06:15:07.033Z,6.81
2023-01-25T06:16:06.729Z,6.74
2023-01-25T06:17:06.625Z,6.85
2023-01-25T06:18:06.617Z,6.77
2023-01-25T06:19:06.624Z,6.81
2023-01-25T06:20:06.614Z,6.80
2023-01-25T06:21:06.633Z,6.69
2023-01-25T06:22:06.602Z,6.71
2023-01-25T06:23:06.620Z,6.73
2023-01-25T06:24:06.673Z,6.66
2023-01-25T06:26:06.587Z,6.66
2023-01-25T06:27:06.589Z,6.66
2023-01-25T06:28:06.588Z,6.69
2023-01-25T06:29:06.564Z,6.66
2023-01-25T06:30:06.571Z,6.70
2023-01-25T06:31:06.587Z,6.69
2023-01-25T06:32:06.590Z,6.81
2023-01-25T06:33:06.560Z,6.77
2023-01-25T06:34:06.605Z,6.77
2023-01-25T06:35:06.916Z,6.76
2023-01-25T06:36:06.536Z,6.77
2023-01-25T06:37:06.551Z,6.79
2023-01-25T06:38:06.531Z,6.71
2023-01-25T06:39:06.520Z,6.85
2023-01-25T06:40:06.516Z,6.81
2023-01-25T06:41:06.535Z,6.88
2023-01-25T06:42:06.506Z,6.84
2023-01-25T06:43:06.498Z,6.76
2023-01-25T06:44:06.507Z,6.94
2023-01-25T06:45:06.943Z,6.84
2023-01-25T06:46:06.524Z,6.84
2023-01-25T06:47:06.481Z,6.79
2023-01-25T06:48:06.488Z,6.87
2023-01-25T06:49:06.476Z,6.88
2023-01-25T06:50:06.485Z,6.91
2023-01-25T06:51:06.470Z,7.03
2023-01-25T06:52:06.469Z,6.76
2023-01-25T06:53:06.472Z,6.88
2023-01-25T06:54:06.457Z,6.77
2023-01-25T06:55:06.766Z,6.76
2023-01-25T06:56:06.442Z,6.64
2023-01-25T06:57:06.429Z,6.66
2023-01-25T06:58:06.432Z,6.76
2023-01-25T06:59:06.425Z,6.74
2023-01-25T07:00:06.419Z,6.79
2023-01-25T07:01:06.416Z,6.71
2023-01-25T07:02:06.508Z,6.66
2023-01-25T07:03:06.440Z,6.67
2023-01-25T07:04:08.182Z,6.67
2023-01-25T07:05:06.471Z,6.77
2023-01-25T07:06:06.405Z,6.85
2023-01-25T07:07:06.383Z,6.80
2023-01-25T07:08:06.377Z,6.76
2023-01-25T07:09:06.403Z,6.69
2023-01-25T07:10:06.372Z,6.73
2023-01-25T07:11:06.380Z,6.69
2023-01-25T07:12:06.362Z,6.52
2023-01-25T07:13:06.353Z,6.49
2023-01-25T07:14:06.376Z,6.56
2023-01-25T07:15:06.485Z,6.33
2023-01-25T07:16:06.345Z,6.38
2023-01-25T07:17:06.343Z,6.51
2023-01-25T07:18:15.864Z,6.44
2023-01-25T07:19:06.338Z,6.52
2023-01-25T07:20:06.326Z,6.59
2023-01-25T07:21:06.352Z,6.58
2023-01-25T07:22:06.312Z,6.69
2023-01-25T07:23:06.302Z,6.70
2023-01-25T07:24:06.400Z,6.67
2023-01-25T07:25:06.375Z,6.62
2023-01-25T07:26:06.397Z,6.73
2023-01-25T07:27:06.283Z,6.67
2023-01-25T07:28:06.283Z,6.70
2023-01-25T07:29:06.276Z,6.84
2023-01-25T07:30:06.277Z,6.87
2023-01-25T07:31:06.417Z,6.85
2023-01-25T07:32:06.267Z,6.84
2023-01-25T07:33:06.256Z,6.73
2023-01-25T07:34:06.260Z,6.73
2023-01-25T07:35:06.267Z,6.74
2023-01-25T07:36:06.253Z,6.73
2023-01-25T07:37:06.234Z,6.69
2023-01-25T07:38:06.234Z,6.67
2023-01-25T07:39:06.242Z,6.69
2023-01-25T07:40:06.221Z,6.74
2023-01-25T07:41:06.233Z,6.71
2023-01-25T07:42:06.211Z,6.71
2023-01-25T07:43:06.234Z,6.71
2023-01-25T07:44:06.213Z,6.79
2023-01-25T07:45:06.193Z,6.79
2023-01-25T07:46:06.197Z,6.74
2023-01-25T07:47:06.187Z,6.79
2023-01-25T07:48:06.182Z,6.79
2023-01-25T07:49:06.173Z,6.84
2023-01-25T07:50:06.176Z,6.87
2023-01-25T07:51:06.167Z,6.84
2023-01-25T07:52:06.163Z,6.74
2023-01-25T07:53:06.158Z,6.74
2023-01-25T07:54:06.157Z,6.79
2023-01-25T07:55:06.250Z,6.80
2023-01-25T07:56:06.142Z,6.73
2023-01-25T07:57:06.162Z,6.70
2023-01-25T07:58:06.135Z,6.88
2023-01-25T07:59:06.126Z,6.70
2023-01-25T08:00:06.134Z,6.70
2023-01-25T08:01:06.119Z,6.61
2023-01-25T08:02:06.119Z,6.81
2023-01-25T08:03:06.111Z,6.71
2023-01-25T08:04:06.104Z,6.67
2023-01-25T08:05:06.146Z,6.73
2023-01-25T08:06:06.119Z,6.80
2023-01-25T08:07:06.094Z,6.73
2023-01-25T08:08:06.083Z,6.73
2023-01-25T08:09:06.075Z,6.66
2023-01-25T08:10:06.076Z,6.80
2023-01-25T08:11:06.065Z,6.61
2023-01-25T08:12:08.569Z,6.62
2023-01-25T08:13:06.089Z,6.58
2023-01-25T08:14:06.062Z,6.40
2023-01-25T08:15:06.058Z,6.34
2023-01-25T08:16:06.048Z,6.51
2023-01-25T08:17:06.054Z,6.64
2023-01-25T08:18:06.035Z,6.52
2023-01-25T08:19:06.028Z,6.44
2023-01-25T08:20:06.022Z,6.43
2023-01-25T08:21:06.027Z,6.44
2023-01-25T08:22:06.014Z,6.43
2023-01-25T08:23:06.012Z,6.52
2023-01-25T08:24:06.119Z,6.62
2023-01-25T08:25:06.031Z,6.46
2023-01-25T08:26:06.072Z,6.46
2023-01-25T08:27:05.996Z,6.49
2023-01-25T08:28:05.983Z,6.66
2023-01-25T08:29:06.011Z,6.55
2023-01-25T08:30:05.984Z,6.69
2023-01-25T08:31:05.975Z,6.55
2023-01-25T08:32:06.038Z,6.48
2023-01-25T08:33:05.964Z,6.51
2023-01-25T08:34:05.979Z,6.48
2023-01-25T08:35:05.955Z,6.62
2023-01-25T08:36:05.946Z,6.54
2023-01-25T08:37:05.939Z,6.56
2023-01-25T08:38:05.942Z,6.40
2023-01-25T08:39:05.930Z,6.51
2023-01-25T08:40:05.926Z,6.51
2023-01-25T08:41:05.927Z,6.34
2023-01-25T08:42:05.918Z,6.40
2023-01-25T08:43:05.911Z,6.21
2023-01-25T08:44:05.947Z,6.27
2023-01-25T08:45:05.924Z,6.27
2023-01-25T08:46:05.904Z,6.38
2023-01-25T08:47:05.893Z,6.44
2023-01-25T08:48:05.900Z,6.51
2023-01-25T08:49:05.880Z,6.52
2023-01-25T08:50:05.877Z,6.44
2023-01-25T08:51:05.868Z,6.54
2023-01-25T08:52:05.867Z,6.52
2023-01-25T08:53:05.870Z,6.37
2023-01-25T08:54:05.862Z,6.17
2023-01-25T08:55:05.852Z,6.33
2023-01-25T08:56:05.849Z,6.28
2023-01-25T08:57:05.845Z,6.37
2023-01-25T08:58:05.835Z,6.43
2023-01-25T08:59:05.834Z,6.40
2023-01-25T09:00:05.827Z,6.37
2023-01-25T09:01:05.857Z,6.37
2023-01-25T09:02:05.819Z,6.36
2023-01-25T09:03:05.810Z,6.40
2023-01-25T09:04:05.842Z,6.48
2023-01-25T09:05:05.804Z,6.37
2023-01-25T09:06:05.792Z,6.37
2023-01-25T09:07:05.801Z,6.52
2023-01-25T09:08:06.881Z,6.52
2023-01-25T09:09:05.794Z,6.70
2023-01-25T09:10:05.776Z,6.70
2023-01-25T09:11:05.777Z,6.62
2023-01-25T09:12:05.766Z,6.73
2023-01-25T09:13:07.739Z,6.70
2023-01-25T09:14:05.753Z,6.85
2023-01-25T09:15:05.773Z,6.88
2023-01-25T09:16:05.750Z,6.89
2023-01-25T09:17:05.758Z,6.77
2023-01-25T09:18:05.737Z,6.76
2023-01-25T09:19:05.737Z,6.69
2023-01-25T09:20:05.724Z,6.70
2023-01-25T09:21:05.720Z,6.70
2023-01-25T09:22:05.732Z,6.71
2023-01-25T09:23:05.710Z,6.58
2023-01-25T09:24:07.327Z,6.54
2023-01-25T09:25:05.702Z,6.58
2023-01-25T09:26:05.691Z,6.51
2023-01-25T09:27:05.689Z,6.67
2023-01-25T09:28:05.683Z,6.64
2023-01-25T09:29:05.682Z,6.64
2023-01-25T09:30:10.926Z,6.64
2023-01-25T09:31:20.497Z,6.64
2023-01-25T09:32:05.746Z,6.70
2023-01-25T09:33:05.682Z,6.73
2023-01-25T09:34:05.655Z,6.67
2023-01-25T09:35:05.662Z,6.66
2023-01-25T09:36:05.644Z,6.67
2023-01-25T09:37:05.674Z,6.69
2023-01-25T09:38:05.635Z,6.71
2023-01-25T09:39:05.626Z,6.79
2023-01-25T09:40:05.625Z,6.88
2023-01-25T09:41:05.627Z,6.84
2023-01-25T09:42:14.029Z,6.81
2023-01-25T09:43:05.612Z,6.79
2023-01-25T09:44:14.634Z,6.69
2023-01-25T09:45:05.615Z,6.79
2023-01-25T09:46:05.607Z,6.81
2023-01-25T09:47:05.601Z,6.73
2023-01-25T09:48:05.587Z,6.69
2023-01-25T09:49:07.794Z,6.69
2023-01-25T09:50:05.604Z,6.81
2023-01-25T09:51:05.579Z,6.76
2023-01-25T09:52:05.562Z,6.89
2023-01-25T09:53:05.576Z,6.85
2023-01-25T09:54:05.557Z,6.88
2023-01-25T09:55:05.553Z,6.92
2023-01-25T09:56:05.551Z,6.97
2023-01-25T09:57:05.549Z,6.84
2023-01-25T09:58:05.544Z,6.85
2023-01-25T09:59:05.535Z,6.77
2023-01-25T10:00:07.180Z,6.73
2023-01-25T10:01:09.650Z,6.71
2023-01-25T10:02:05.552Z,6.61
2023-01-25T10:03:05.587Z,6.67
2023-01-25T10:04:05.504Z,6.73
2023-01-25T10:05:05.525Z,6.74
2023-01-25T10:06:05.497Z,6.61
2023-01-25T10:07:05.491Z,6.48
2023-01-25T10:08:05.492Z,6.37
2023-01-25T10:09:05.485Z,6.37
2023-01-25T10:10:05.476Z,6.21
2023-01-25T10:11:05.503Z,6.31
2023-01-25T10:12:05.469Z,6.43
2023-01-25T10:13:05.475Z,6.41
2023-01-25T10:14:05.459Z,6.37
2023-01-25T10:15:05.455Z,6.21
2023-01-25T10:16:09.896Z,6.19
2023-01-25T10:17:05.449Z,6.06
2023-01-25T10:18:05.432Z,6.18
2023-01-25T10:19:05.435Z,6.21
2023-01-25T10:20:05.516Z,6.18
2023-01-25T10:21:05.447Z,6.21
2023-01-25T10:22:05.473Z,6.33
2023-01-25T10:23:05.414Z,6.34
2023-01-25T10:24:05.461Z,6.33
2023-01-25T10:25:05.411Z,6.25
2023-01-25T10:26:05.396Z,6.40
2023-01-25T10:27:05.398Z,6.31
2023-01-25T10:28:05.383Z,6.38
2023-01-25T10:29:05.384Z,6.44
2023-01-25T10:30:05.380Z,6.48
2023-01-25T10:31:05.585Z,6.56
2023-01-25T10:32:05.366Z,6.54
2023-01-25T10:33:05.372Z,6.69
2023-01-25T10:34:05.357Z,6.76
2023-01-25T10:35:05.354Z,6.73
2023-01-25T10:36:05.356Z,6.67
2023-01-25T10:37:05.369Z,6.74
2023-01-25T10:38:05.342Z,6.79
2023-01-25T10:39:05.341Z,6.85
2023-01-25T10:40:05.326Z,6.76
2023-01-25T10:41:05.352Z,6.94
2023-01-25T10:42:05.314Z,6.85
2023-01-25T10:43:05.323Z,6.79
2023-01-25T10:44:05.307Z,6.66
2023-01-25T10:45:05.321Z,6.79
2023-01-25T10:46:05.297Z,6.77
2023-01-25T10:47:08.330Z,6.76
2023-01-25T10:48:05.299Z,6.89
2023-01-25T10:49:05.294Z,6.88
2023-01-25T10:50:05.280Z,6.88
2023-01-25T10:51:05.277Z,6.85
2023-01-25T10:52:05.273Z,6.81
2023-01-25T10:53:05.302Z,6.85
2023-01-25T10:54:05.255Z,6.84
2023-01-25T10:55:05.255Z,6.77
2023-01-25T10:56:05.249Z,6.92
2023-01-25T10:57:05.248Z,6.88
2023-01-25T10:58:05.239Z,6.88
2023-01-25T10:59:05.248Z,6.79
2023-01-25T11:00:05.237Z,6.91
2023-01-25T11:01:05.226Z,6.80
2023-01-25T11:02:05.276Z,6.69
2023-01-25T11:03:05.307Z,6.71
2023-01-25T11:04:05.212Z,6.66
2023-01-25T11:05:05.206Z,6.52
2023-01-25T11:06:05.198Z,6.46
2023-01-25T11:07:05.212Z,6.43
2023-01-25T11:08:05.187Z,6.38
2023-01-25T11:09:05.263Z,6.46
2023-01-25T11:10:05.174Z,6.55
2023-01-25T11:11:05.196Z,6.43
2023-01-25T11:12:05.169Z,6.62
2023-01-25T11:13:05.178Z,6.64
2023-01-25T11:14:05.163Z,6.69
2023-01-25T11:15:05.161Z,6.62
2023-01-25T11:16:05.219Z,6.62
2023-01-25T11:17:05.223Z,6.49
2023-01-25T11:18:05.139Z,6.34
2023-01-25T11:19:05.143Z,6.14
2023-01-25T11:20:05.137Z,6.15
2023-01-25T11:21:05.129Z,6.28
2023-01-25T11:22:05.118Z,6.18
2023-01-25T11:23:05.119Z,6.40
2023-01-25T11:24:05.179Z,6.34
2023-01-25T11:25:05.128Z,6.49
2023-01-25T11:26:05.103Z,6.44
2023-01-25T11:27:05.106Z,6.64
2023-01-25T11:28:05.091Z,6.66
2023-01-25T11:29:05.093Z,6.67
2023-01-25T11:30:05.081Z,6.73
2023-01-25T11:31:05.213Z,6.77
2023-01-25T11:32:05.078Z,6.81
2023-01-25T11:33:05.066Z,6.70
2023-01-25T11:34:05.061Z,6.77
2023-01-25T11:35:05.063Z,6.71
2023-01-25T11:36:05.055Z,6.80
2023-01-25T11:37:05.062Z,6.73
2023-01-25T11:38:05.039Z,6.71
2023-01-25T11:39:05.047Z,6.79
2023-01-25T11:40:05.355Z,6.79
2023-01-25T11:41:05.051Z,6.67
2023-01-25T11:42:05.019Z,6.58
2023-01-25T11:43:05.024Z,6.69
2023-01-25T11:44:05.009Z,6.51
2023-01-25T11:45:05.009Z,6.64
2023-01-25T11:46:05.085Z,6.48
2023-01-25T11:47:05.001Z,6.55
2023-01-25T11:48:04.990Z,6.49
2023-01-25T11:49:04.993Z,6.51
2023-01-25T11:50:04.987Z,6.54
2023-01-25T11:51:04.980Z,6.51
2023-01-25T11:52:04.983Z,6.56
2023-01-25T11:53:04.973Z,6.59
2023-01-25T11:54:04.964Z,6.64
2023-01-25T11:55:04.965Z,6.40
2023-01-25T11:56:04.959Z,6.43
2023-01-25T11:57:04.968Z,6.33
2023-01-25T11:58:04.971Z,6.31
2023-01-25T11:59:04.943Z,6.37
2023-01-25T12:00:04.964Z,6.44
2023-01-25T12:01:04.934Z,6.37
2023-01-25T12:02:04.922Z,6.43
2023-01-25T12:03:04.966Z,6.46
2023-01-25T12:04:05.053Z,6.54
2023-01-25T12:05:12.621Z,6.56
2023-01-25T12:06:04.903Z,6.62
2023-01-25T12:07:04.915Z,6.51
2023-01-25T12:08:04.895Z,6.55
2023-01-25T12:09:04.893Z,6.22
2023-01-25T12:10:04.887Z,6.41
2023-01-25T12:11:04.885Z,6.30
2023-01-25T12:12:04.876Z,6.30
2023-01-25T12:13:04.902Z,6.12
2023-01-25T12:14:04.869Z,6.14
2023-01-25T12:15:07.251Z,6.14
2023-01-25T12:16:04.901Z,6.03
2023-01-25T12:17:05.056Z,6.03
2023-01-25T12:18:04.844Z,6.08
2023-01-25T12:19:04.845Z,6.11
2023-01-25T12:20:04.834Z,5.90
2023-01-25T12:21:07.826Z,6.00
2023-01-25T12:22:04.819Z,6.08
2023-01-25T12:23:04.827Z,6.14
2023-01-25T12:24:04.930Z,6.33
2023-01-25T12:25:04.809Z,6.17
2023-01-25T12:26:04.802Z,6.15
2023-01-25T12:27:04.804Z,6.33
2023-01-25T12:28:04.802Z,6.41
2023-01-25T12:29:04.849Z,6.37
2023-01-25T12:30:04.787Z,6.51
2023-01-25T12:31:04.938Z,6.55
2023-01-25T12:32:04.776Z,6.46
2023-01-25T12:33:14.456Z,6.52
2023-01-25T12:34:04.773Z,6.46
2023-01-25T12:35:04.782Z,6.49
2023-01-25T12:36:04.761Z,6.48
2023-01-25T12:37:04.745Z,6.44
2023-01-25T12:38:04.748Z,6.46
2023-01-25T12:39:04.742Z,6.49
2023-01-25T12:40:04.736Z,6.55
2023-01-25T12:41:04.728Z,6.52
2023-01-25T12:42:04.727Z,6.48
2023-01-25T12:43:04.722Z,6.49
2023-01-25T12:44:04.720Z,6.41
2023-01-25T12:45:04.733Z,6.40
2023-01-25T12:46:04.723Z,6.52
2023-01-25T12:47:04.707Z,6.44
2023-01-25T12:48:04.696Z,6.37
2023-01-25T12:49:04.693Z,6.52
2023-01-25T12:50:04.715Z,6.51
2023-01-25T12:51:04.689Z,6.56
2023-01-25T12:52:04.695Z,6.48
2023-01-25T12:53:04.674Z,6.48
2023-01-25T12:54:04.667Z,6.56
2023-01-25T12:55:04.656Z,6.56
2023-01-25T12:56:04.659Z,6.52
2023-01-25T12:57:04.652Z,6.64
2023-01-25T12:58:04.656Z,6.69
2023-01-25T12:59:04.638Z,6.59
2023-01-25T13:00:04.635Z,6.40
2023-01-25T13:01:04.680Z,6.40
2023-01-25T13:02:04.678Z,6.48
2023-01-25T13:03:04.624Z,6.51
2023-01-25T13:04:04.616Z,6.41
2023-01-25T13:05:04.606Z,6.38
2023-01-25T13:06:04.622Z,6.46
2023-01-25T13:07:04.599Z,6.37
2023-01-25T13:08:04.629Z,6.31
2023-01-25T13:09:04.586Z,6.44
2023-01-25T13:10:04.588Z,6.46
2023-01-25T13:11:04.585Z,6.46
2023-01-25T13:12:04.591Z,6.41
2023-01-25T13:13:04.574Z,6.58
2023-01-25T13:14:04.564Z,6.70
2023-01-25T13:15:04.568Z,6.62
2023-01-25T13:16:04.929Z,6.51
2023-01-25T13:17:10.065Z,6.52
2023-01-25T13:18:04.553Z,6.64
2023-01-25T13:19:04.551Z,6.70